Time;durP1;ratioP1;P1;durP2;ratioP2;P2;SDS_P1;SDS_P2;PMS_P1;PMS_P2;Temp;Humidity;BMP_temperature;BMP_pressure;BME280_temperature;BME280_humidity;BME280_pressure;Samples;Min_cycle;Max_cycle;Signal;HPM_P1;HPM_P2
2024/04/02 00:00:44;;;;;;;3.50;3.20;;;8.10;1.00;;;;;;5034384;28;20262;-72
2024/04/02 00:03:11;;;;;;;3.80;3.47;;;8.10;1.00;;;;;;5020752;28;20212;-72
2024/04/02 00:05:38;;;;;;;3.83;3.10;;;8.10;1.00;;;;;;5014202;28;20234;-72
2024/04/02 00:08:05;;;;;;;4.93;3.20;;;8.10;99.90;;;;;;5012620;28;20180;-72
2024/04/02 00:10:32;;;;;;;3.70;3.40;;;8.10;1.00;;;;;;5014170;28;20180;-72
2024/04/02 00:12:58;;;;;;;3.60;3.30;;;8.10;1.00;;;;;;5013772;28;20196;-72
2024/04/02 00:15:23;;;;;;;3.60;3.30;;;8.00;63.20;;;;;;5014406;28;20204;-72
2024/04/02 00:17:49;;;;;;;4.27;3.87;;;8.00;99.90;;;;;;5025445;28;20187;-72
2024/04/02 00:20:15;;;;;;;4.27;3.27;;;8.00;99.90;;;;;;5033809;28;20168;-71
2024/04/02 00:22:41;;;;;;;4.77;3.90;;;8.00;99.90;;;;;;5033770;28;20172;-71
2024/04/02 00:25:07;;;;;;;3.40;3.20;;;8.00;1.00;;;;;;5033675;28;20163;-71
2024/04/02 00:27:32;;;;;;;3.60;3.33;;;8.10;1.00;;;;;;5033419;28;20510;-71
2024/04/02 00:29:58;;;;;;;3.67;3.37;;;8.10;1.00;;;;;;5033345;28;20250;-71
2024/04/02 00:32:24;;;;;;;4.80;3.53;;;8.10;1.00;;;;;;5022477;28;20215;-72
2024/04/02 00:34:50;;;;;;;3.97;3.67;;;8.10;1.00;;;;;;5013545;28;20195;-72
2024/04/02 00:37:15;;;;;;;3.80;3.50;;;8.20;1.00;;;;;;5013544;28;20196;-71
2024/04/02 00:39:43;;;;;;;3.77;3.40;;;8.20;99.90;;;;;;5013631;28;20176;-71
2024/04/02 00:42:09;;;;;;;3.70;3.40;;;8.20;99.90;;;;;;5013484;28;20262;-71
2024/04/02 00:44:35;;;;;;;4.43;3.57;;;8.20;99.90;;;;;;5013629;28;20219;-70
2024/04/02 00:47:02;;;;;;;4.23;3.40;;;8.20;99.90;;;;;;5013261;28;20190;-72
2024/04/02 00:49:30;;;;;;;5.03;3.93;;;8.20;81.70;;;;;;5013966;28;20184;-72
2024/04/02 00:51:56;;;;;;;4.47;3.60;;;8.20;1.00;;;;;;5013191;28;20526;-71
2024/04/02 00:54:22;;;;;;;3.80;3.40;;;8.20;1.00;;;;;;5012129;28;20192;-71
2024/04/02 00:56:47;;;;;;;4.00;3.53;;;8.20;99.90;;;;;;5013201;28;20685;-71
2024/04/02 00:59:13;;;;;;;3.60;3.30;;;8.20;99.90;;;;;;5013791;28;20515;-71
2024/04/02 01:01:39;;;;;;;3.40;3.20;;;8.20;99.90;;;;;;5033925;28;20231;-71
2024/04/02 01:04:06;;;;;;;8.63;3.73;;;8.20;99.90;;;;;;5034011;28;20207;-71
2024/04/02 01:06:31;;;;;;;4.33;3.90;;;8.10;99.90;;;;;;5033235;28;20171;-71
2024/04/02 01:08:58;;;;;;;3.60;3.40;;;8.20;99.90;;;;;;5033038;28;20263;-72
2024/04/02 01:11:26;;;;;;;6.13;3.77;;;8.20;99.90;;;;;;5032797;28;20612;-71
2024/04/02 01:13:52;;;;;;;3.53;3.23;;;8.20;99.90;;;;;;5029865;28;20196;-72
2024/04/02 01:16:18;;;;;;;3.50;3.30;;;8.20;99.90;;;;;;5013196;28;20190;-72
2024/04/02 01:18:47;;;;;;;3.50;3.20;;;8.20;1.00;;;;;;5012766;28;20192;-72
2024/04/02 01:21:14;;;;;;;3.87;3.57;;;8.30;99.90;;;;;;5013259;28;20650;-72
2024/04/02 01:23:39;;;;;;;5.80;3.50;;;8.30;1.00;;;;;;5032594;28;20223;-72
2024/04/02 01:26:05;;;;;;;3.40;3.20;;;8.40;99.90;;;;;;5031124;28;20175;-74
2024/04/02 01:28:31;;;;;;;3.77;3.47;;;8.30;1.00;;;;;;5032290;28;20172;-71
2024/04/02 01:30:57;;;;;;;3.83;3.43;;;8.40;16.30;;;;;;5032200;28;20294;-72
2024/04/02 01:33:24;;;;;;;3.50;3.03;;;8.40;1.00;;;;;;5015552;28;20223;-71
2024/04/02 01:35:49;;;;;;;7.67;3.30;;;8.40;1.00;;;;;;5011012;28;20171;-72
2024/04/02 01:38:15;;;;;;;3.70;3.40;;;8.40;99.90;;;;;;5011405;28;20426;-72
2024/04/02 01:40:41;;;;;;;3.40;3.10;;;8.50;1.00;;;;;;5011949;28;20186;-72
2024/04/02 01:43:07;;;;;;;3.77;3.40;;;8.50;1.00;;;;;;5011893;28;20579;-72
2024/04/02 01:45:33;;;;;;;3.70;3.30;;;8.50;1.00;;;;;;5012240;28;20191;-72
2024/04/02 01:47:59;;;;;;;5.03;3.30;;;8.60;1.00;;;;;;5011553;28;20177;-71
2024/04/02 01:50:24;;;;;;;3.67;3.37;;;8.60;1.00;;;;;;5012193;28;20173;-72
2024/04/02 01:52:50;;;;;;;3.60;3.40;;;8.70;99.90;;;;;;5011774;28;20210;-71
2024/04/02 01:55:15;;;;;;;3.30;3.10;;;8.80;99.90;;;;;;5031744;28;20174;-72
2024/04/02 01:57:41;;;;;;;3.50;3.20;;;8.90;1.00;;;;;;5029542;28;20649;-73
2024/04/02 02:00:07;;;;;;;3.40;3.20;;;8.90;1.00;;;;;;5025724;28;20238;-72
2024/04/02 02:02:33;;;;;;;4.13;3.73;;;9.00;1.00;;;;;;5011815;28;20609;-71
2024/04/02 02:04:58;;;;;;;3.73;3.43;;;9.10;1.00;;;;;;5011446;28;20275;-71
2024/04/02 02:07:24;;;;;;;3.80;3.50;;;9.10;99.90;;;;;;5010063;28;20183;-72
2024/04/02 02:09:50;;;;;;;4.33;3.70;;;9.20;99.90;;;;;;5011750;28;20180;-72
2024/04/02 02:12:15;;;;;;;3.70;3.37;;;9.20;99.90;;;;;;5011759;28;20210;-71
2024/04/02 02:14:41;;;;;;;3.47;3.17;;;9.30;99.90;;;;;;5011848;28;20559;-72
2024/04/02 02:17:06;;;;;;;3.37;3.10;;;9.30;99.90;;;;;;5011432;28;20202;-71
2024/04/02 02:19:32;;;;;;;6.50;3.43;;;9.30;99.90;;;;;;5012000;28;20543;-72
2024/04/02 02:21:57;;;;;;;3.67;3.33;;;9.40;99.90;;;;;;5011685;28;20191;-72
2024/04/02 02:24:23;;;;;;;7.07;3.80;;;9.40;64.40;;;;;;5011539;28;20200;-71
2024/04/02 02:26:50;;;;;;;4.00;3.70;;;9.40;2.50;;;;;;5011839;28;20176;-71
2024/04/02 02:29:16;;;;;;;4.17;3.87;;;9.40;1.00;;;;;;5026220;28;20192;-71
2024/04/02 02:31:42;;;;;;;3.80;3.10;;;9.40;1.00;;;;;;5031802;28;20199;-73
2024/04/02 02:34:08;;;;;;;4.33;3.17;;;9.40;1.00;;;;;;5031447;28;20200;-72
2024/04/02 02:36:34;;;;;;;4.60;3.47;;;9.40;1.00;;;;;;5031769;28;20590;-73
2024/04/02 02:38:59;;;;;;;3.47;3.27;;;9.30;1.00;;;;;;5031141;28;20171;-72
2024/04/02 02:41:25;;;;;;;3.50;3.30;;;9.30;1.00;;;;;;5031335;28;20676;-72
2024/04/02 02:43:50;;;;;;;5.33;3.40;;;9.30;1.00;;;;;;5030802;28;20226;-71
2024/04/02 02:46:16;;;;;;;3.50;3.20;;;9.20;1.00;;;;;;5031435;28;20225;-72
2024/04/02 02:48:42;;;;;;;4.03;3.60;;;9.10;20.00;;;;;;5031453;28;20199;-73
2024/04/02 02:51:07;;;;;;;3.73;3.50;;;9.10;99.90;;;;;;5031693;28;20276;-72
2024/04/02 02:53:33;;;;;;;3.40;3.20;;;9.00;99.90;;;;;;5031594;28;20278;-72
2024/04/02 02:56:00;;;;;;;4.70;3.67;;;8.90;99.90;;;;;;5028129;28;20407;-72
2024/04/02 02:58:26;;;;;;;4.13;3.57;;;8.90;99.90;;;;;;5011335;28;20203;-73
2024/04/02 03:00:52;;;;;;;18.00;3.50;;;8.80;1.00;;;;;;5012871;28;20215;-73
2024/04/02 03:03:17;;;;;;;3.47;3.27;;;8.80;1.00;;;;;;5012458;28;20567;-72
2024/04/02 03:05:54;;;;;;;3.33;3.10;;;8.70;1.00;;;;;;5012254;28;20176;-72
2024/04/02 03:08:20;;;;;;;5.53;3.63;;;8.60;99.90;;;;;;5011725;28;20586;-72
2024/04/02 03:11:04;;;;;;;3.87;3.40;;;8.60;99.90;;;;;;5011794;28;20298;-72
2024/04/02 03:13:31;;;;;;;4.20;3.40;;;8.60;99.90;;;;;;5011377;28;20188;-72
2024/04/02 03:15:56;;;;;;;4.80;4.17;;;8.50;1.00;;;;;;5011244;28;20187;-72
2024/04/02 03:18:23;;;;;;;6.40;3.30;;;8.40;1.00;;;;;;5015344;28;20176;-73
2024/04/02 03:20:48;;;;;;;3.83;3.53;;;8.40;99.90;;;;;;5016021;28;20616;-73
2024/04/02 03:23:16;;;;;;;3.90;3.60;;;8.40;1.00;;;;;;5016387;28;20195;-72
2024/04/02 03:25:42;;;;;;;4.00;3.60;;;8.30;99.90;;;;;;5034209;28;20176;-73
2024/04/02 03:28:07;;;;;;;3.67;3.37;;;8.30;99.90;;;;;;5036341;28;20191;-73
2024/04/02 03:30:33;;;;;;;5.27;3.80;;;8.20;1.00;;;;;;5036736;28;20492;-71
2024/04/02 03:32:59;;;;;;;4.03;3.73;;;8.10;99.90;;;;;;5036111;28;20199;-72
2024/04/02 03:35:24;;;;;;;5.53;3.47;;;8.10;1.00;;;;;;5034860;28;20199;-72
2024/04/02 03:37:50;;;;;;;3.87;3.50;;;8.10;99.90;;;;;;5034287;28;20203;-72
2024/04/02 03:40:16;;;;;;;4.03;3.63;;;8.10;99.90;;;;;;5034209;28;20206;-72
2024/04/02 03:42:41;;;;;;;3.83;3.40;;;8.10;1.00;;;;;;5034519;28;20185;-72
2024/04/02 03:45:08;;;;;;;3.60;3.40;;;8.10;1.00;;;;;;5034401;28;20183;-72
2024/04/02 03:47:34;;;;;;;4.00;3.70;;;8.20;1.00;;;;;;5034303;28;20172;-72
2024/04/02 03:49:59;;;;;;;3.70;3.23;;;8.20;1.00;;;;;;5034814;28;20228;-73
2024/04/02 03:52:25;;;;;;;3.40;3.10;;;8.30;1.00;;;;;;5027455;28;20689;-72
2024/04/02 03:54:51;;;;;;;4.53;3.60;;;8.30;1.00;;;;;;5014910;28;20223;-72
2024/04/02 03:57:16;;;;;;;4.63;3.43;;;8.40;1.00;;;;;;5014365;28;20582;-72
2024/04/02 03:59:42;;;;;;;6.43;3.50;;;8.50;1.00;;;;;;5014695;28;20173;-72
2024/04/02 04:02:07;;;;;;;5.77;3.90;;;8.70;1.00;;;;;;5014958;28;20202;-72
2024/04/02 04:04:33;;;;;;;3.60;3.30;;;8.80;99.90;;;;;;5013941;28;20417;-71
2024/04/02 04:06:58;;;;;;;3.70;3.40;;;8.90;1.00;;;;;;5014432;28;20169;-72
2024/04/02 04:09:24;;;;;;;6.00;3.40;;;8.90;99.90;;;;;;5015788;28;20283;-72
2024/04/02 04:11:50;;;;;;;4.53;3.53;;;9.00;1.00;;;;;;5015486;28;20208;-73
2024/04/02 04:14:16;;;;;;;4.20;3.10;;;9.00;1.00;;;;;;5015925;28;20688;-72
2024/04/02 04:16:42;;;;;;;4.10;3.70;;;9.10;99.90;;;;;;5015143;28;20184;-73
2024/04/02 04:19:08;;;;;;;3.57;3.27;;;9.10;99.90;;;;;;5014532;28;20181;-72
2024/04/02 04:21:33;;;;;;;4.23;3.73;;;9.10;1.00;;;;;;5029176;28;20237;-72
2024/04/02 04:23:59;;;;;;;3.63;3.43;;;9.20;99.90;;;;;;5033309;28;20191;-73
2024/04/02 04:26:24;;;;;;;3.77;3.43;;;9.20;99.10;;;;;;5033504;28;20214;-72
2024/04/02 04:28:50;;;;;;;3.40;3.20;;;9.20;1.00;;;;;;5033293;28;20179;-73
2024/04/02 04:31:16;;;;;;;3.80;3.53;;;9.20;99.90;;;;;;5033397;28;20664;-73
2024/04/02 04:33:41;;;;;;;5.23;3.50;;;9.10;99.90;;;;;;5033211;28;20261;-73
2024/04/02 04:36:07;;;;;;;4.33;3.50;;;9.10;1.00;;;;;;5018492;28;20176;-74
2024/04/02 04:38:34;;;;;;;6.60;3.63;;;9.00;1.00;;;;;;5013456;28;20259;-74
2024/04/02 04:41:00;;;;;;;3.70;3.40;;;9.00;1.00;;;;;;5013375;28;20169;-73
2024/04/02 04:43:26;;;;;;;6.20;3.70;;;8.90;1.00;;;;;;5013215;28;20196;-73
2024/04/02 04:45:55;;;;;;;5.97;3.63;;;8.90;40.40;;;;;;5012952;28;20250;-73
2024/04/02 04:48:22;;;;;;;6.77;3.90;;;8.90;81.30;;;;;;5019107;28;20178;-74
2024/04/02 04:50:55;;;;;;;4.10;3.73;;;8.90;95.70;;;;;;5032915;28;20207;-73
2024/04/02 04:53:21;;;;;;;4.90;3.67;;;8.90;99.90;;;;;;5032948;28;20183;-74
2024/04/02 04:55:46;;;;;;;4.17;3.73;;;8.90;99.90;;;;;;5032042;28;20168;-73
2024/04/02 04:58:12;;;;;;;3.60;3.30;;;8.90;99.90;;;;;;5032707;28;20167;-73
2024/04/02 05:00:38;;;;;;;4.10;3.70;;;8.90;99.90;;;;;;5033222;28;20239;-73
2024/04/02 05:03:03;;;;;;;6.77;3.50;;;8.90;99.90;;;;;;5032186;28;20238;-73
2024/04/02 05:05:29;;;;;;;4.17;3.73;;;8.90;99.90;;;;;;5032880;28;20171;-74
2024/04/02 05:07:56;;;;;;;4.00;3.70;;;8.90;99.90;;;;;;5031159;28;20179;-73
2024/04/02 05:10:26;;;;;;;4.43;3.80;;;8.90;99.90;;;;;;5033018;28;20166;-73
2024/04/02 05:12:51;;;;;;;4.03;3.73;;;8.90;99.90;;;;;;5019149;28;20176;-73
2024/04/02 05:15:17;;;;;;;4.07;3.70;;;8.80;99.90;;;;;;5012684;28;20168;-73
2024/04/02 05:17:43;;;;;;;4.43;4.03;;;8.80;99.90;;;;;;5029359;28;20187;-73
2024/04/02 05:20:09;;;;;;;4.97;3.60;;;8.90;99.90;;;;;;5032746;28;20175;-73
2024/04/02 05:22:36;;;;;;;4.37;4.00;;;8.80;99.90;;;;;;5032996;28;20649;-74
2024/04/02 05:25:02;;;;;;;4.23;3.80;;;8.80;99.90;;;;;;5032117;28;20199;-74
2024/04/02 05:27:27;;;;;;;6.03;4.03;;;8.90;99.90;;;;;;5032125;28;20196;-74
2024/04/02 05:29:53;;;;;;;6.47;3.83;;;8.80;99.90;;;;;;5031743;28;20553;-74
2024/04/02 05:32:18;;;;;;;5.33;4.73;;;8.90;99.90;;;;;;5030448;28;20333;-74
2024/04/02 05:34:44;;;;;;;4.63;3.90;;;8.90;99.90;;;;;;5032471;28;20539;-74
2024/04/02 05:37:09;;;;;;;4.47;4.10;;;9.00;99.90;;;;;;5033029;28;20171;-73
2024/04/02 05:39:35;;;;;;;3.97;3.60;;;9.00;99.90;;;;;;5032221;28;20720;-73
2024/04/02 05:42:00;;;;;;;4.00;3.70;;;9.00;99.90;;;;;;5032051;28;20190;-73
2024/04/02 05:44:26;;;;;;;4.27;3.90;;;9.10;99.90;;;;;;5025786;28;20278;-74
2024/04/02 05:46:52;;;;;;;4.17;3.80;;;9.10;99.90;;;;;;5012533;28;20184;-74
2024/04/02 05:49:17;;;;;;;6.00;3.83;;;9.10;99.90;;;;;;5012890;28;20180;-74
2024/04/02 05:51:43;;;;;;;5.37;3.93;;;9.20;99.90;;;;;;5012299;28;20204;-74
2024/04/02 05:54:08;;;;;;;6.57;4.07;;;9.20;99.90;;;;;;5013314;28;20215;-74
2024/04/02 05:56:34;;;;;;;5.10;4.33;;;9.30;99.90;;;;;;5012704;28;20187;-74
2024/04/02 05:58:59;;;;;;;6.67;4.10;;;9.30;99.90;;;;;;5012300;28;20633;-74
2024/04/02 06:01:26;;;;;;;7.33;4.00;;;9.40;99.90;;;;;;5013267;28;20263;-74
2024/04/02 06:03:52;;;;;;;5.40;3.47;;;9.40;99.90;;;;;;5011668;28;20203;-72
2024/04/02 06:06:18;;;;;;;4.57;3.40;;;9.40;99.90;;;;;;5011817;28;20176;-73
2024/04/02 06:08:43;;;;;;;5.10;4.20;;;9.50;99.90;;;;;;5020160;28;20245;-72
2024/04/02 06:11:09;;;;;;;7.70;4.13;;;9.50;99.90;;;;;;5050929;28;20198;-73
2024/04/02 06:13:34;;;;;;;6.80;3.60;;;9.50;99.90;;;;;;5034431;28;20199;-73
2024/04/02 06:16:00;;;;;;;6.23;4.20;;;9.50;99.90;;;;;;5031066;28;20190;-73
2024/04/02 06:18:25;;;;;;;5.40;3.83;;;9.60;99.90;;;;;;5031208;28;20206;-73
2024/04/02 06:20:58;;;;;;;6.87;4.30;;;9.60;99.90;;;;;;5031374;28;20172;-73
2024/04/02 06:23:24;;;;;;;9.20;4.27;;;9.80;99.90;;;;;;5031132;28;20195;-73
2024/04/02 06:25:50;;;;;;;6.13;3.93;;;9.90;99.90;;;;;;5031339;28;20521;-73
2024/04/02 06:28:15;;;;;;;18.07;4.23;;;10.10;99.90;;;;;;5015778;28;20176;-72
2024/04/02 06:30:42;;;;;;;10.80;4.30;;;10.30;99.90;;;;;;5011384;28;20187;-73
2024/04/02 06:33:07;;;;;;;7.07;3.70;;;10.40;99.90;;;;;;5010983;28;20234;-73
2024/04/02 06:35:33;;;;;;;10.73;4.10;;;10.50;99.90;;;;;;5011461;28;20200;-73
2024/04/02 06:37:59;;;;;;;6.40;3.40;;;10.70;99.90;;;;;;5011066;28;20177;-73
2024/04/02 06:40:24;;;;;;;7.27;4.20;;;10.80;99.90;;;;;;5015925;28;20183;-73
2024/04/02 06:42:50;;;;;;;10.03;4.00;;;11.00;99.90;;;;;;5029655;28;20684;-72
2024/04/02 06:45:15;;;;;;;9.83;3.40;;;11.30;99.90;;;;;;5030863;28;20246;-73
2024/04/02 06:47:41;;;;;;;6.43;3.10;;;11.60;99.90;;;;;;5031142;28;20211;-73
2024/04/02 06:50:07;;;;;;;7.97;3.97;;;11.80;99.90;;;;;;5028546;28;20182;-73
2024/04/02 06:52:32;;;;;;;9.57;4.10;;;11.80;99.90;;;;;;5017482;28;20627;-73
2024/04/02 06:54:58;;;;;;;12.50;4.23;;;11.80;99.90;;;;;;5020114;28;20573;-72
2024/04/02 06:57:24;;;;;;;9.50;3.83;;;11.70;99.90;;;;;;5015918;28;20183;-72
2024/04/02 06:59:49;;;;;;;9.53;3.20;;;11.60;99.90;;;;;;5025762;28;20686;-73
2024/04/02 07:02:15;;;;;;;7.97;3.23;;;11.60;99.90;;;;;;5014581;28;20215;-72
2024/04/02 07:04:40;;;;;;;7.03;3.53;;;11.80;99.90;;;;;;5027288;28;20195;-74
2024/04/02 07:07:06;;;;;;;8.23;3.40;;;12.10;99.90;;;;;;5034264;28;20186;-72
2024/04/02 07:09:33;;;;;;;10.10;3.83;;;12.50;99.90;;;;;;5034452;28;20175;-72
2024/04/02 07:11:59;;;;;;;5.33;3.80;;;13.10;99.90;;;;;;5034123;28;20203;-73
2024/04/02 07:14:24;;;;;;;8.57;3.60;;;13.80;99.90;;;;;;5034617;28;20202;-73
2024/04/02 07:16:50;;;;;;;6.07;3.47;;;14.30;99.90;;;;;;5021848;28;20266;-73
2024/04/02 07:19:16;;;;;;;6.20;2.80;;;14.70;99.90;;;;;;5014300;28;20520;-75
2024/04/02 07:21:41;;;;;;;4.70;2.70;;;15.10;99.90;;;;;;5014743;28;20539;-72
2024/04/02 07:24:07;;;;;;;6.50;2.90;;;15.50;99.90;;;;;;5014636;28;20200;-72
2024/04/02 07:26:32;;;;;;;7.00;2.97;;;15.50;99.90;;;;;;5015043;28;20180;-72
2024/04/02 07:28:58;;;;;;;8.63;2.83;;;15.60;99.90;;;;;;5014385;28;20238;-72
2024/04/02 07:31:25;;;;;;;6.83;2.63;;;15.80;99.90;;;;;;5013772;28;20247;-72
2024/04/02 07:33:51;;;;;;;7.63;3.27;;;15.70;99.90;;;;;;5025915;28;20196;-75
2024/04/02 07:36:18;;;;;;;7.87;3.13;;;15.30;99.90;;;;;;5032406;28;20519;-73
2024/04/02 07:38:44;;;;;;;6.23;2.70;;;14.80;99.90;;;;;;5033335;28;20271;-73
2024/04/02 07:41:10;;;;;;;3.83;2.70;;;14.50;99.90;;;;;;5032231;28;20726;-73
2024/04/02 07:43:36;;;;;;;5.93;3.00;;;14.50;99.90;;;;;;5033868;28;20195;-73
2024/04/02 07:46:02;;;;;;;8.27;3.33;;;14.20;99.90;;;;;;5033504;28;20234;-72
2024/04/02 07:48:28;;;;;;;7.23;3.20;;;14.00;99.90;;;;;;5033501;28;20247;-73
2024/04/02 07:50:54;;;;;;;5.93;3.07;;;13.70;99.90;;;;;;5030343;28;20207;-71
2024/04/02 07:53:20;;;;;;;11.27;3.37;;;13.50;99.90;;;;;;5024053;28;20271;-72
2024/04/02 07:55:45;;;;;;;7.97;3.40;;;13.40;99.90;;;;;;5033815;28;20255;-72
2024/04/02 07:58:11;;;;;;;6.83;3.27;;;13.40;99.90;;;;;;5017156;28;20239;-74
2024/04/02 08:00:37;;;;;;;3.30;2.93;;;13.10;99.90;;;;;;5033018;28;20202;-73
2024/04/02 08:03:03;;;;;;;6.97;3.53;;;12.90;99.90;;;;;;5017941;28;20572;-73
2024/04/02 08:05:29;;;;;;;12.60;3.73;;;12.80;99.90;;;;;;5015032;28;20176;-74
2024/04/02 08:07:55;;;;;;;5.83;3.20;;;12.70;99.90;;;;;;5028822;28;20187;-72
2024/04/02 08:10:20;;;;;;;6.73;3.40;;;12.60;99.90;;;;;;5032694;28;20233;-74
2024/04/02 08:12:46;;;;;;;6.77;3.17;;;12.40;99.90;;;;;;5029405;28;20200;-73
2024/04/02 08:15:11;;;;;;;7.30;3.20;;;12.30;99.90;;;;;;5013572;28;20234;-75
2024/04/02 08:17:37;;;;;;;4.17;3.13;;;12.30;99.90;;;;;;5013640;28;20215;-74
2024/04/02 08:20:03;;;;;;;7.90;3.17;;;12.30;99.90;;;;;;5024505;28;20179;-76
2024/04/02 08:22:29;;;;;;;9.37;3.30;;;12.30;99.90;;;;;;5031330;28;20198;-74
2024/04/02 08:24:55;;;;;;;3.13;2.83;;;12.40;99.90;;;;;;5014776;28;20796;-74
2024/04/02 08:27:20;;;;;;;5.67;3.33;;;12.50;99.90;;;;;;5021910;28;20190;-75
2024/04/02 08:29:48;;;;;;;5.50;3.20;;;12.70;99.90;;;;;;5032358;28;20191;-74
2024/04/02 08:32:14;;;;;;;3.93;2.87;;;13.00;99.90;;;;;;5017893;28;20219;-72
2024/04/02 08:34:39;;;;;;;6.93;3.10;;;13.10;99.90;;;;;;5016530;28;20192;-73
2024/04/02 08:37:05;;;;;;;6.07;3.00;;;13.40;99.90;;;;;;5013854;28;20191;-73
2024/04/02 08:39:30;;;;;;;4.73;3.10;;;13.60;99.90;;;;;;5013423;28;20176;-73
2024/04/02 08:42:01;;;;;;;6.90;3.03;;;13.60;99.90;;;;;;5013394;28;20191;-73
2024/04/02 08:44:33;;;;;;;4.20;2.80;;;13.80;99.90;;;;;;5013725;28;20212;-73
2024/04/02 08:46:59;;;;;;;5.87;3.00;;;13.90;99.90;;;;;;5023819;28;20176;-72
2024/04/02 08:49:25;;;;;;;6.00;3.53;;;13.90;99.90;;;;;;5013772;28;20664;-72
2024/04/02 08:51:52;;;;;;;4.90;2.80;;;13.90;99.90;;;;;;5033792;28;20283;-75
2024/04/02 08:54:17;;;;;;;4.47;2.77;;;13.70;99.90;;;;;;5032296;28;20200;-75
2024/04/02 08:56:43;;;;;;;8.33;2.90;;;13.80;99.90;;;;;;5017270;28;20188;-75
2024/04/02 08:59:13;;;;;;;5.63;3.13;;;13.90;99.90;;;;;;5025166;28;20175;-76
2024/04/02 09:01:40;;;;;;;5.57;2.80;;;13.80;99.90;;;;;;5026035;28;20179;-75
2024/04/02 09:04:06;;;;;;;4.73;2.70;;;13.80;99.90;;;;;;5019071;28;20200;-72
2024/04/02 09:06:31;;;;;;;2.80;2.50;;;13.80;99.90;;;;;;5022377;28;20207;-75
2024/04/02 09:08:57;;;;;;;4.37;2.60;;;14.10;99.90;;;;;;5021978;28;20579;-74
2024/04/02 09:11:24;;;;;;;5.27;2.80;;;14.30;99.90;;;;;;5032542;28;20955;-75
2024/04/02 09:13:50;;;;;;;5.10;2.73;;;14.50;99.90;;;;;;5030119;28;20195;-73
2024/04/02 09:16:16;;;;;;;5.53;2.60;;;14.70;99.90;;;;;;5025054;28;20734;-73
2024/04/02 09:18:45;;;;;;;4.20;2.33;;;14.80;99.90;;;;;;5038111;28;20187;-73
2024/04/02 09:21:12;;;;;;;5.50;3.03;;;14.70;99.90;;;;;;5019156;28;20176;-74
2024/04/02 09:23:38;;;;;;;3.00;2.80;;;14.60;99.90;;;;;;5012336;28;20207;-73
2024/04/02 09:26:07;;;;;;;11.40;5.73;;;14.40;99.90;;;;;;5012264;28;20176;-73
2024/04/02 09:28:37;;;;;;;5.07;3.50;;;14.40;99.90;;;;;;5029492;28;20203;-75
2024/04/02 09:31:03;;;;;;;9.10;5.57;;;14.40;99.90;;;;;;5031828;28;20669;-73
2024/04/02 09:33:30;;;;;;;4.17;2.97;;;14.40;99.90;;;;;;5031783;28;20210;-74
2024/04/02 09:36:12;;;;;;;3.13;2.80;;;14.30;99.90;;;;;;5031848;28;20195;-72
2024/04/02 09:38:40;;;;;;;4.67;2.70;;;14.30;99.90;;;;;;5031777;28;20680;-73
2024/04/02 09:41:06;;;;;;;3.97;2.90;;;14.30;99.90;;;;;;5031761;28;20704;-74
2024/04/02 09:43:36;;;;;;;7.07;2.77;;;14.20;99.90;;;;;;5012434;28;20286;-72
2024/04/02 09:46:03;;;;;;;4.23;2.80;;;14.10;99.90;;;;;;5012327;28;20642;-72
2024/04/02 09:48:31;;;;;;;3.10;2.43;;;13.90;99.90;;;;;;5017888;28;20183;-71
2024/04/02 09:50:58;;;;;;;5.50;3.23;;;13.80;99.90;;;;;;5032137;28;20202;-72
2024/04/02 09:53:28;;;;;;;4.97;2.97;;;13.60;99.90;;;;;;5033173;28;20234;-73
2024/04/02 09:55:57;;;;;;;5.70;2.83;;;13.60;99.90;;;;;;5020185;28;20184;-74
2024/04/02 09:58:22;;;;;;;7.03;2.80;;;13.50;99.90;;;;;;5011214;28;20650;-72
2024/04/02 10:00:56;;;;;;;4.53;2.80;;;13.40;99.90;;;;;;5012152;28;20183;-73
2024/04/02 10:03:27;;;;;;;5.53;2.70;;;13.40;99.90;;;;;;5011997;28;20606;-75
2024/04/02 10:06:04;;;;;;;3.50;2.60;;;13.50;99.90;;;;;;5020336;28;20171;-72
2024/04/02 10:08:35;;;;;;;5.60;2.73;;;13.60;99.90;;;;;;5032481;28;20607;-73
2024/04/02 10:11:03;;;;;;;12.03;3.13;;;13.60;99.90;;;;;;5033421;28;20253;-74
2024/04/02 10:13:38;;;;;;;4.60;2.60;;;13.70;99.90;;;;;;5034119;28;20217;-72
2024/04/02 10:16:11;;;;;;;4.63;3.33;;;13.80;99.90;;;;;;5032897;28;20187;-74
2024/04/02 10:18:46;;;;;;;3.30;3.00;;;13.80;99.90;;;;;;5033004;28;20682;-74
2024/04/02 10:21:12;;;;;;;6.77;3.10;;;13.90;99.90;;;;;;5020999;28;20190;-73
2024/04/02 10:23:40;;;;;;;3.77;2.63;;;14.00;99.90;;;;;;5013413;28;20569;-73
2024/04/02 10:26:12;;;;;;;2.90;2.53;;;14.00;99.90;;;;;;5011077;28;20196;-72
2024/04/02 10:28:42;;;;;;;3.33;2.50;;;13.90;99.90;;;;;;5011137;28;20168;-73
2024/04/02 10:31:17;;;;;;;5.33;3.00;;;14.00;99.90;;;;;;5011058;28;20282;-72
2024/04/02 10:33:43;;;;;;;3.37;2.97;;;14.10;99.90;;;;;;5011219;28;20578;-74
2024/04/02 10:36:12;;;;;;;4.40;2.60;;;14.20;99.90;;;;;;5011260;28;20182;-71
2024/04/02 10:38:38;;;;;;;4.00;2.70;;;14.30;99.90;;;;;;5011484;28;20230;-72
2024/04/02 10:41:05;;;;;;;10.90;3.53;;;14.40;99.90;;;;;;5011219;28;20578;-72
2024/04/02 10:43:32;;;;;;;6.23;2.73;;;14.60;99.90;;;;;;5011723;28;20540;-72
2024/04/02 10:45:57;;;;;;;6.10;2.83;;;14.70;99.90;;;;;;5011622;28;20703;-73
2024/04/02 10:48:23;;;;;;;5.27;2.70;;;15.00;99.90;;;;;;5015117;28;20179;-71
2024/04/02 10:50:51;;;;;;;2.90;2.57;;;15.20;99.90;;;;;;5030519;28;20225;-71
2024/04/02 10:53:17;;;;;;;4.80;3.10;;;15.40;99.90;;;;;;5011088;28;20195;-72
2024/04/02 10:55:43;;;;;;;2.63;2.23;;;15.60;99.90;;;;;;5011390;28;20200;-72
2024/04/02 10:58:10;;;;;;;5.43;2.63;;;15.70;99.90;;;;;;5010689;28;20196;-71
2024/04/02 11:00:36;;;;;;;6.13;2.70;;;15.80;99.90;;;;;;5011210;28;20176;-71
2024/04/02 11:03:03;;;;;;;2.73;2.30;;;15.80;99.90;;;;;;5011103;28;20463;-71
2024/04/02 11:05:29;;;;;;;4.67;3.00;;;15.60;99.90;;;;;;5011677;28;20195;-76
2024/04/02 11:07:57;;;;;;;3.30;2.40;;;15.40;99.90;;;;;;5011265;28;20554;-73
2024/04/02 11:10:22;;;;;;;3.33;2.10;;;15.20;99.90;;;;;;5011214;28;20700;-71
2024/04/02 11:12:49;;;;;;;2.73;2.47;;;14.90;99.90;;;;;;5011327;28;20215;-74
2024/04/02 11:15:15;;;;;;;3.80;2.50;;;14.80;99.90;;;;;;5031114;28;20184;-74
2024/04/02 11:17:42;;;;;;;2.60;2.40;;;14.60;99.90;;;;;;5031229;28;20183;-73
2024/04/02 11:20:11;;;;;;;3.20;2.67;;;14.50;99.90;;;;;;5021392;28;20184;-72
2024/04/02 11:25:22;;;;;;;3.33;2.70;;;13.80;99.90;;;;;;5012730;28;20720;-74
2024/04/02 11:27:47;;;;;;;2.90;2.70;;;13.30;99.90;;;;;;5012403;28;20180;-74
2024/04/02 11:30:16;;;;;;;5.20;2.90;;;12.90;99.90;;;;;;5011898;28;20560;-73
2024/04/02 11:32:42;;;;;;;4.90;3.23;;;12.60;99.90;;;;;;5011286;28;20199;-73
2024/04/02 11:35:15;;;;;;;4.97;3.23;;;12.50;99.90;;;;;;5012607;28;20180;-73
2024/04/02 11:37:41;;;;;;;5.83;3.30;;;12.60;99.90;;;;;;5012194;28;20173;-73
2024/04/02 11:40:09;;;;;;;7.33;3.10;;;12.40;99.90;;;;;;5015335;28;20180;-73
2024/04/02 11:42:35;;;;;;;5.67;3.20;;;12.30;99.90;;;;;;5015491;28;20180;-73
2024/04/02 11:45:00;;;;;;;6.07;3.27;;;12.30;99.90;;;;;;5016252;28;20207;-72
2024/04/02 11:47:30;;;;;;;7.10;3.97;;;12.40;99.90;;;;;;5020093;28;20266;-72
2024/04/02 11:49:56;;;;;;;5.23;3.13;;;12.50;99.90;;;;;;5034826;28;20269;-72
2024/04/02 11:52:22;;;;;;;3.63;2.80;;;12.60;99.90;;;;;;5034010;28;20234;-73
2024/04/02 11:54:47;;;;;;;3.97;3.00;;;13.00;99.90;;;;;;5033849;28;20195;-72
2024/04/02 12:00:07;;;;;;;4.77;3.03;;;13.90;99.90;;;;;;5034388;28;20556;-72
2024/04/02 12:02:34;;;;;;;5.20;3.07;;;14.60;99.90;;;;;;5025902;28;20190;-73
2024/04/02 12:05:00;;;;;;;3.93;2.70;;;14.90;99.90;;;;;;5012849;28;20219;-73
2024/04/02 12:07:27;;;;;;;3.63;2.63;;;15.10;99.90;;;;;;5014105;28;20694;-73
2024/04/02 12:09:56;;;;;;;4.70;2.60;;;15.10;99.90;;;;;;5014477;28;20176;-72
2024/04/02 12:12:26;;;;;;;6.77;2.57;;;15.20;99.90;;;;;;5013954;28;20215;-73
2024/04/02 12:14:53;;;;;;;6.60;2.80;;;15.00;99.90;;;;;;5014023;28;20272;-72
2024/04/02 12:17:21;;;;;;;3.53;2.73;;;14.50;99.90;;;;;;5033352;28;20191;-74
2024/04/02 12:19:47;;;;;;;8.20;7.60;;;13.70;99.90;;;;;;5034800;28;20164;-74
2024/04/02 12:22:13;;;;;;;5.60;3.67;;;13.10;99.90;;;;;;5035751;28;20178;-75
2024/04/02 12:24:38;;;;;;;4.43;3.33;;;12.60;99.90;;;;;;5034479;28;20203;-73
2024/04/02 12:27:05;;;;;;;4.47;3.50;;;12.30;99.90;;;;;;5033752;28;20176;-74
2024/04/02 12:29:31;;;;;;;4.00;3.20;;;12.10;99.90;;;;;;5034003;28;20229;-74
2024/04/02 12:31:58;;;;;;;6.17;3.80;;;11.90;99.90;;;;;;5033739;28;20196;-73
2024/04/02 12:34:24;;;;;;;4.47;3.43;;;12.00;99.90;;;;;;5033493;28;20195;-74
2024/04/02 12:36:49;;;;;;;6.13;3.53;;;12.10;99.90;;;;;;5032691;28;20603;-74
2024/04/02 12:39:15;;;;;;;6.13;3.30;;;12.10;99.90;;;;;;5033529;28;20171;-74
2024/04/02 12:41:41;;;;;;;3.77;3.00;;;12.20;99.90;;;;;;5033388;28;20177;-73
2024/04/02 12:44:07;;;;;;;5.87;3.27;;;12.10;99.90;;;;;;5031301;28;20211;-75
2024/04/02 12:46:33;;;;;;;6.43;2.97;;;12.30;99.90;;;;;;5031362;28;20236;-73
2024/04/02 12:49:04;;;;;;;3.50;3.17;;;12.60;99.90;;;;;;5032003;28;20180;-75
2024/04/02 12:51:30;;;;;;;7.50;3.40;;;12.70;99.90;;;;;;5032432;28;20195;-74
2024/04/02 12:53:55;;;;;;;8.07;3.90;;;12.60;99.90;;;;;;5032773;28;20194;-72